Time;durP1;ratioP1;P1;durP2;ratioP2;P2;SDS_P1;SDS_P2;PMS_P1;PMS_P2;Temp;Humidity;BMP_temperature;BMP_pressure;BME280_temperature;BME280_humidity;BME280_pressure;Samples;Min_cycle;Max_cycle;Signal;HPM_P1;HPM_P2
2023/03/07 00:02:15;;;;;;;4.00;2.90;;;7.20;99.90;;;;;;4968149;28;20171;-74
2023/03/07 00:04:45;;;;;;;6.10;4.37;;;7.20;99.90;;;;;;4972057;28;20267;-74
2023/03/07 00:07:11;;;;;;;4.30;3.60;;;7.20;99.90;;;;;;4972696;28;20689;-74
2023/03/07 00:09:36;;;;;;;5.83;4.10;;;7.20;99.90;;;;;;4972100;28;20206;-74
2023/03/07 00:12:03;;;;;;;3.73;3.10;;;7.20;99.90;;;;;;4955145;28;20685;-74
2023/03/07 00:14:29;;;;;;;4.40;2.97;;;7.20;99.90;;;;;;4973495;28;20541;-74
2023/03/07 00:16:54;;;;;;;3.87;2.97;;;7.20;99.90;;;;;;4973059;28;20179;-74
2023/03/07 00:19:20;;;;;;;3.17;2.57;;;7.20;99.90;;;;;;4970765;28;20689;-74
2023/03/07 00:21:46;;;;;;;2.77;2.37;;;7.10;99.90;;;;;;4965847;28;20211;-74
2023/03/07 00:24:11;;;;;;;3.67;3.03;;;7.10;99.90;;;;;;4971171;28;20685;-74
2023/03/07 00:26:38;;;;;;;5.40;2.73;;;7.10;99.90;;;;;;4970593;28;20752;-74
2023/03/07 00:29:06;;;;;;;4.07;2.65;;;7.10;99.90;;;;;;4970906;28;20633;-74
2023/03/07 00:31:32;;;;;;;4.60;3.15;;;7.10;99.90;;;;;;4972273;28;20250;-74
2023/03/07 00:33:59;;;;;;;2.88;2.13;;;7.10;99.90;;;;;;4971948;28;20184;-74
2023/03/07 00:36:25;;;;;;;4.28;2.65;;;7.10;99.90;;;;;;4971061;28;20234;-75
2023/03/07 00:38:51;;;;;;;2.93;1.90;;;7.10;99.90;;;;;;4954447;28;20207;-75
2023/03/07 00:41:25;;;;;;;3.40;2.53;;;7.10;99.90;;;;;;4971950;28;20635;-75
2023/03/07 00:43:52;;;;;;;3.10;2.15;;;7.10;99.90;;;;;;4971603;28;20219;-75
2023/03/07 00:46:19;;;;;;;3.35;2.58;;;7.10;99.90;;;;;;4972182;28;20175;-74
2023/03/07 00:48:45;;;;;;;2.50;1.98;;;7.10;99.90;;;;;;4970347;28;20207;-75
2023/03/07 00:51:14;;;;;;;4.22;2.50;;;7.10;99.90;;;;;;4970485;28;20180;-74
2023/03/07 00:53:40;;;;;;;2.60;1.70;;;7.10;99.90;;;;;;4966348;28;20184;-74
2023/03/07 00:56:16;;;;;;;2.95;2.38;;;7.10;99.90;;;;;;4938413;28;20200;-75
2023/03/07 00:58:44;;;;;;;2.25;1.80;;;7.10;99.90;;;;;;4954593;28;20250;-75
2023/03/07 01:01:11;;;;;;;2.33;2.10;;;7.10;99.90;;;;;;4969737;28;20230;-75
2023/03/07 01:03:38;;;;;;;3.30;2.25;;;7.10;99.90;;;;;;4954165;28;20167;-75
2023/03/07 01:06:06;;;;;;;2.47;1.83;;;7.10;99.90;;;;;;4953876;28;20202;-74
2023/03/07 01:08:33;;;;;;;2.63;1.60;;;7.10;99.90;;;;;;4954799;28;20249;-75
2023/03/07 01:11:00;;;;;;;3.00;2.15;;;7.10;99.90;;;;;;4954035;28;20306;-75
2023/03/07 01:13:28;;;;;;;3.90;2.75;;;7.10;99.90;;;;;;4953767;28;20546;-75
2023/03/07 01:15:54;;;;;;;3.35;2.10;;;7.10;99.90;;;;;;4953936;28;20182;-75
2023/03/07 01:18:21;;;;;;;3.07;1.83;;;7.10;99.90;;;;;;4954133;28;20203;-75
2023/03/07 01:20:47;;;;;;;3.05;1.95;;;7.10;99.90;;;;;;4937137;28;20710;-75
2023/03/07 01:23:13;;;;;;;3.73;2.13;;;7.10;99.90;;;;;;4953099;28;20644;-75
2023/03/07 01:25:41;;;;;;;2.37;1.50;;;7.20;99.90;;;;;;4971730;28;20264;-75
2023/03/07 01:28:13;;;;;;;3.10;1.90;;;7.20;99.90;;;;;;4953398;28;20587;-75
2023/03/07 01:30:40;;;;;;;2.58;1.95;;;7.20;99.90;;;;;;4954124;28;20191;-75
2023/03/07 01:33:06;;;;;;;3.58;2.00;;;7.20;99.90;;;;;;4970543;28;20186;-75
2023/03/07 01:35:39;;;;;;;3.73;2.40;;;7.20;99.90;;;;;;4970041;28;20175;-75
2023/03/07 01:38:05;;;;;;;2.85;1.80;;;7.20;99.90;;;;;;4969751;28;20172;-75
2023/03/07 01:40:33;;;;;;;3.05;1.92;;;7.20;99.90;;;;;;4938068;28;20298;-74
2023/03/07 01:43:44;;;;;;;2.80;1.90;;;7.20;99.90;;;;;;4937744;28;20203;-75
2023/03/07 01:46:17;;;;;;;2.58;1.92;;;7.20;99.90;;;;;;4952268;28;20211;-75
2023/03/07 01:48:50;;;;;;;3.08;2.05;;;7.20;99.90;;;;;;4969982;28;20657;-75
2023/03/07 01:51:17;;;;;;;2.97;2.67;;;7.20;99.90;;;;;;4952796;28;20215;-75
2023/03/07 01:53:45;;;;;;;2.90;1.95;;;7.20;99.90;;;;;;4939767;28;20230;-75
2023/03/07 01:56:12;;;;;;;3.10;2.40;;;7.20;99.90;;;;;;4973463;28;20270;-75
2023/03/07 01:58:38;;;;;;;2.58;1.75;;;7.10;99.90;;;;;;4973557;28;20206;-75
2023/03/07 02:01:09;;;;;;;3.25;1.80;;;7.10;99.90;;;;;;4940690;28;20203;-75
2023/03/07 02:03:52;;;;;;;2.80;1.88;;;7.10;99.90;;;;;;4940216;28;20176;-75
2023/03/07 02:06:19;;;;;;;3.55;2.35;;;7.10;99.90;;;;;;4959035;28;20679;-75
2023/03/07 02:08:47;;;;;;;2.80;2.30;;;7.10;99.90;;;;;;4941719;28;20342;-75
2023/03/07 02:11:13;;;;;;;2.60;2.00;;;7.10;99.90;;;;;;4949617;28;20284;-75
2023/03/07 02:13:39;;;;;;;2.83;2.00;;;7.10;99.90;;;;;;4957015;28;20183;-75
2023/03/07 02:16:06;;;;;;;2.58;1.83;;;7.10;99.90;;;;;;4957022;28;20683;-76
2023/03/07 02:18:36;;;;;;;2.70;2.03;;;7.10;99.90;;;;;;4937520;29;20592;-73
2023/03/07 02:21:39;;;;;;;2.80;1.80;;;7.10;99.90;;;;;;4966799;28;20603;-73
2023/03/07 02:24:20;;;;;;;2.65;1.73;;;7.10;99.90;;;;;;4957296;28;20175;-73
2023/03/07 02:26:48;;;;;;;2.33;1.85;;;7.10;99.90;;;;;;4973350;28;20175;-74
2023/03/07 02:29:14;;;;;;;3.90;2.65;;;7.10;99.90;;;;;;4955894;28;20210;-74
2023/03/07 02:31:42;;;;;;;3.03;2.30;;;7.10;99.90;;;;;;4956642;28;20172;-73
2023/03/07 02:34:23;;;;;;;3.20;2.20;;;7.10;99.90;;;;;;4940570;28;20270;-74
2023/03/07 02:37:05;;;;;;;2.80;2.40;;;7.10;99.90;;;;;;4957051;28;20250;-74
2023/03/07 02:39:32;;;;;;;3.70;2.40;;;7.10;99.90;;;;;;4956200;28;20199;-74
2023/03/07 02:42:05;;;;;;;4.50;2.75;;;7.20;99.90;;;;;;4956484;28;20199;-74
2023/03/07 02:44:44;;;;;;;4.38;2.35;;;7.10;99.90;;;;;;4956785;28;20202;-74
2023/03/07 02:47:10;;;;;;;2.85;2.53;;;7.10;99.90;;;;;;4956878;28;20182;-74
2023/03/07 02:49:35;;;;;;;3.57;2.77;;;7.10;99.90;;;;;;4956585;28;20210;-74
2023/03/07 02:52:02;;;;;;;3.47;3.15;;;7.10;99.90;;;;;;4955947;28;20586;-74
2023/03/07 02:54:30;;;;;;;4.38;3.28;;;7.20;99.90;;;;;;4956611;28;20211;-74
2023/03/07 02:56:57;;;;;;;5.45;3.08;;;7.20;99.90;;;;;;4956158;28;20171;-74
2023/03/07 02:59:22;;;;;;;3.72;2.58;;;7.20;99.90;;;;;;4956445;28;20222;-74
2023/03/07 03:01:48;;;;;;;4.03;3.03;;;7.20;99.90;;;;;;4973105;28;20195;-74
2023/03/07 03:04:14;;;;;;;3.70;3.30;;;7.20;99.90;;;;;;4955212;28;20534;-74
2023/03/07 03:06:41;;;;;;;3.47;2.63;;;7.20;99.90;;;;;;4972293;28;20591;-74
2023/03/07 03:09:08;;;;;;;4.45;3.10;;;7.20;99.90;;;;;;4955992;28;20230;-74
2023/03/07 03:11:34;;;;;;;2.97;2.67;;;7.20;99.90;;;;;;4973531;28;20184;-74
2023/03/07 03:13:59;;;;;;;3.13;2.80;;;7.20;99.90;;;;;;4955445;28;20172;-74
2023/03/07 03:16:26;;;;;;;4.10;3.38;;;7.20;99.90;;;;;;4972102;28;20642;-74
2023/03/07 03:18:52;;;;;;;3.53;2.83;;;7.20;99.90;;;;;;4973093;28;20319;-74
2023/03/07 03:21:18;;;;;;;3.40;2.83;;;7.20;99.90;;;;;;4971905;28;20722;-74
2023/03/07 03:23:43;;;;;;;3.97;2.90;;;7.20;99.90;;;;;;4923439;28;20787;-74
2023/03/07 03:26:10;;;;;;;4.60;3.40;;;7.20;99.90;;;;;;4956070;28;20171;-74
2023/03/07 03:28:38;;;;;;;5.20;3.20;;;7.20;99.90;;;;;;4955891;28;20334;-74
2023/03/07 03:31:10;;;;;;;3.85;2.60;;;7.20;99.90;;;;;;4955507;28;20179;-74
2023/03/07 03:33:38;;;;;;;3.75;2.65;;;7.20;99.90;;;;;;4955472;28;20695;-74
2023/03/07 03:36:08;;;;;;;3.25;2.58;;;7.20;99.90;;;;;;4955617;28;20178;-74
2023/03/07 03:38:34;;;;;;;6.82;4.35;;;7.20;99.90;;;;;;4923763;28;20192;-74
2023/03/07 03:41:05;;;;;;;4.72;3.60;;;7.20;99.90;;;;;;4955202;28;20584;-75
2023/03/07 03:43:31;;;;;;;3.80;3.08;;;7.20;99.90;;;;;;4939405;28;20187;-74
2023/03/07 03:45:57;;;;;;;2.87;2.50;;;7.10;99.90;;;;;;4955230;28;20187;-73
2023/03/07 03:48:25;;;;;;;5.35;2.85;;;7.10;99.90;;;;;;4955499;28;20611;-75
2023/03/07 03:51:07;;;;;;;3.60;3.30;;;7.10;99.90;;;;;;4955773;28;20188;-75
2023/03/07 03:53:35;;;;;;;3.78;3.30;;;7.10;99.90;;;;;;4972540;28;20198;-74
2023/03/07 03:56:05;;;;;;;3.70;2.83;;;7.10;99.90;;;;;;4954579;28;20187;-75
2023/03/07 03:58:32;;;;;;;3.13;2.63;;;7.10;99.90;;;;;;4955035;28;20234;-74
2023/03/07 04:01:10;;;;;;;4.47;3.70;;;7.10;99.90;;;;;;4955300;28;20214;-74
2023/03/07 04:03:38;;;;;;;3.50;2.97;;;7.00;99.90;;;;;;4954710;28;20326;-72
2023/03/07 04:06:06;;;;;;;5.55;3.08;;;7.00;99.90;;;;;;4955574;28;20172;-74
2023/03/07 04:08:37;;;;;;;3.50;3.08;;;7.00;99.90;;;;;;4954824;28;20687;-74
2023/03/07 04:11:03;;;;;;;5.05;3.53;;;7.00;99.90;;;;;;4955052;28;20613;-74
2023/03/07 04:13:30;;;;;;;4.55;3.60;;;7.00;99.90;;;;;;4954612;28;20217;-74
2023/03/07 04:15:56;;;;;;;3.60;3.03;;;7.00;99.90;;;;;;4971962;28;20625;-74
2023/03/07 04:18:22;;;;;;;4.27;3.40;;;7.00;99.90;;;;;;4954719;28;20223;-74
2023/03/07 04:20:50;;;;;;;3.67;3.20;;;7.00;99.90;;;;;;4957021;28;20659;-74
2023/03/07 04:23:21;;;;;;;4.50;3.60;;;6.90;99.90;;;;;;4954940;28;20215;-75
2023/03/07 04:25:54;;;;;;;6.80;3.35;;;7.00;99.90;;;;;;4954526;28;20172;-74
2023/03/07 04:28:22;;;;;;;4.47;3.75;;;6.90;99.90;;;;;;4954725;28;20975;-74
2023/03/07 04:30:48;;;;;;;5.20;3.70;;;6.90;99.90;;;;;;4954445;28;20262;-74
2023/03/07 04:33:15;;;;;;;4.72;3.80;;;6.90;99.90;;;;;;4954604;28;20176;-74
2023/03/07 04:35:41;;;;;;;5.60;4.15;;;6.90;99.90;;;;;;4970448;28;20190;-74
2023/03/07 04:38:07;;;;;;;5.03;4.03;;;7.00;99.90;;;;;;4938593;28;20283;-75
2023/03/07 04:40:34;;;;;;;3.78;3.38;;;6.90;99.90;;;;;;4954490;28;20211;-74
2023/03/07 04:43:00;;;;;;;4.65;3.75;;;7.00;99.90;;;;;;4958522;28;20175;-74
2023/03/07 04:45:27;;;;;;;5.32;4.25;;;7.00;99.90;;;;;;4971989;28;20171;-75
2023/03/07 04:47:52;;;;;;;3.92;2.95;;;7.00;99.90;;;;;;4953923;28;20167;-75
2023/03/07 04:50:19;;;;;;;4.10;3.70;;;7.00;99.90;;;;;;4971830;28;20234;-75
2023/03/07 04:52:46;;;;;;;4.57;3.35;;;7.00;99.90;;;;;;4954886;28;20640;-75
2023/03/07 04:55:13;;;;;;;5.38;3.65;;;7.00;99.90;;;;;;4954583;28;20190;-75
2023/03/07 04:57:40;;;;;;;4.68;3.65;;;7.00;99.90;;;;;;4954397;28;20176;-74
2023/03/07 05:00:08;;;;;;;5.63;4.00;;;7.00;99.90;;;;;;4937862;28;20215;-75
2023/03/07 05:02:35;;;;;;;5.13;3.83;;;7.00;99.90;;;;;;4953881;28;20187;-75
2023/03/07 05:05:02;;;;;;;3.97;3.58;;;7.00;99.90;;;;;;4969879;28;20183;-75
2023/03/07 05:07:28;;;;;;;6.10;4.90;;;7.00;99.90;;;;;;4938443;28;20180;-74
2023/03/07 05:09:55;;;;;;;7.28;3.90;;;7.00;99.90;;;;;;4956395;28;20858;-74
2023/03/07 05:12:22;;;;;;;5.03;4.53;;;7.00;99.90;;;;;;4962592;28;20172;-75
2023/03/07 05:14:48;;;;;;;5.57;4.50;;;7.00;99.90;;;;;;4945661;28;20178;-75
2023/03/07 05:17:14;;;;;;;4.97;4.22;;;7.00;99.90;;;;;;4963964;28;20203;-75
2023/03/07 05:19:40;;;;;;;5.78;4.13;;;7.00;99.90;;;;;;4985084;28;20187;-75
2023/03/07 05:22:06;;;;;;;7.95;5.07;;;7.00;99.90;;;;;;4982178;28;20211;-75
2023/03/07 05:24:32;;;;;;;5.22;3.92;;;7.00;99.90;;;;;;4954102;28;20182;-75
2023/03/07 05:27:00;;;;;;;5.75;4.25;;;7.00;99.90;;;;;;4936796;28;20196;-75
2023/03/07 05:29:27;;;;;;;6.32;4.93;;;7.00;99.90;;;;;;4941164;28;20199;-75
2023/03/07 05:31:53;;;;;;;6.93;4.90;;;7.00;99.90;;;;;;4970301;28;20184;-75
2023/03/07 05:34:19;;;;;;;8.23;5.93;;;7.10;99.90;;;;;;4955109;28;20628;-75
2023/03/07 05:36:45;;;;;;;5.93;5.10;;;7.00;99.90;;;;;;4970078;28;20199;-75
2023/03/07 05:39:14;;;;;;;5.18;4.65;;;7.00;99.90;;;;;;4953430;28;20196;-75
2023/03/07 05:41:40;;;;;;;7.10;5.03;;;7.00;99.90;;;;;;4953456;28;20244;-75
2023/03/07 05:44:06;;;;;;;6.00;4.80;;;7.00;99.90;;;;;;4953686;28;20214;-75
2023/03/07 05:46:32;;;;;;;5.80;4.90;;;7.00;99.90;;;;;;4969879;28;20572;-75
2023/03/07 05:48:57;;;;;;;6.77;4.90;;;7.00;99.90;;;;;;4969346;28;20611;-74
2023/03/07 05:51:23;;;;;;;4.37;3.90;;;7.00;99.90;;;;;;4953692;28;20590;-74
2023/03/07 05:53:49;;;;;;;5.97;4.43;;;7.00;99.90;;;;;;4937321;28;20175;-75
2023/03/07 05:56:16;;;;;;;6.32;5.32;;;7.00;99.90;;;;;;4953701;28;20638;-75
2023/03/07 05:58:42;;;;;;;7.50;5.30;;;7.00;99.90;;;;;;4969824;28;20231;-75
2023/03/07 06:01:08;;;;;;;6.20;4.95;;;7.00;99.90;;;;;;4968162;28;20210;-75
2023/03/07 06:03:34;;;;;;;6.27;4.80;;;7.00;99.90;;;;;;4951337;28;20259;-74
2023/03/07 06:05:59;;;;;;;5.63;5.03;;;7.00;99.90;;;;;;4979355;28;20188;-74
2023/03/07 06:08:25;;;;;;;6.70;5.30;;;7.00;99.90;;;;;;4953563;28;20207;-74
2023/03/07 06:10:53;;;;;;;7.07;5.23;;;7.10;99.90;;;;;;4968777;28;20171;-74
2023/03/07 06:13:22;;;;;;;8.00;4.95;;;7.00;99.90;;;;;;4969248;28;20219;-75
2023/03/07 06:15:50;;;;;;;6.30;4.78;;;7.10;99.90;;;;;;4953407;28;20182;-75
2023/03/07 06:18:17;;;;;;;7.47;4.82;;;7.10;99.90;;;;;;4969475;28;20179;-75
2023/03/07 06:20:43;;;;;;;6.13;4.55;;;7.10;99.90;;;;;;4955047;28;20204;-75
2023/03/07 06:23:09;;;;;;;6.07;4.33;;;7.10;99.90;;;;;;4953323;28;20172;-75
2023/03/07 06:25:36;;;;;;;6.07;4.53;;;7.10;99.90;;;;;;4969675;28;20541;-75
2023/03/07 06:28:10;;;;;;;6.72;4.97;;;7.10;99.90;;;;;;4969171;28;20243;-75
2023/03/07 06:30:36;;;;;;;4.75;4.13;;;7.10;99.90;;;;;;4969679;28;20183;-75
2023/03/07 06:33:03;;;;;;;6.47;4.50;;;7.10;99.90;;;;;;4968529;28;20188;-75
2023/03/07 06:35:28;;;;;;;5.97;4.77;;;7.10;99.90;;;;;;4953612;28;20226;-75
2023/03/07 06:37:54;;;;;;;6.93;4.60;;;7.10;99.90;;;;;;4970646;28;20606;-75
2023/03/07 06:40:21;;;;;;;7.07;5.68;;;7.10;99.90;;;;;;4972530;28;20247;-74
2023/03/07 06:42:47;;;;;;;7.63;4.70;;;7.10;99.90;;;;;;4956637;28;20218;-76
2023/03/07 06:45:12;;;;;;;7.67;5.20;;;7.10;99.90;;;;;;4959551;28;20571;-75
2023/03/07 06:47:38;;;;;;;5.93;4.80;;;7.10;99.90;;;;;;4973998;28;20182;-75
2023/03/07 06:50:07;;;;;;;6.65;5.50;;;7.10;99.90;;;;;;4956164;28;20226;-75
2023/03/07 06:52:34;;;;;;;6.40;4.20;;;7.20;99.90;;;;;;4972532;28;20179;-75
2023/03/07 06:55:00;;;;;;;7.40;5.30;;;7.20;99.90;;;;;;4959182;28;20184;-75
2023/03/07 06:57:28;;;;;;;6.95;5.38;;;7.20;99.90;;;;;;4956816;28;20179;-75
2023/03/07 06:59:54;;;;;;;5.47;4.50;;;7.20;99.90;;;;;;4955938;28;20219;-75
2023/03/07 07:02:20;;;;;;;5.93;4.15;;;7.20;99.90;;;;;;4939784;29;20243;-75
2023/03/07 07:04:46;;;;;;;5.33;4.33;;;7.20;99.90;;;;;;4940931;28;20211;-75
2023/03/07 07:07:12;;;;;;;5.55;4.00;;;7.30;99.90;;;;;;4940232;28;20171;-75
2023/03/07 07:09:38;;;;;;;6.18;4.10;;;7.30;99.90;;;;;;4954874;28;20666;-75
2023/03/07 07:12:04;;;;;;;5.00;3.80;;;7.30;99.90;;;;;;4957460;28;20234;-75
2023/03/07 07:14:32;;;;;;;6.22;4.60;;;7.30;99.90;;;;;;4945853;28;20203;-75
2023/03/07 07:16:58;;;;;;;5.97;3.92;;;7.40;99.90;;;;;;4946090;28;20180;-75
2023/03/07 07:19:26;;;;;;;5.60;4.00;;;7.40;99.90;;;;;;4964754;28;20250;-75
2023/03/07 07:21:52;;;;;;;6.60;4.53;;;7.50;99.90;;;;;;4972654;28;20196;-75
2023/03/07 07:24:18;;;;;;;5.15;4.00;;;7.50;99.90;;;;;;4971410;28;20168;-75
2023/03/07 07:26:44;;;;;;;5.53;4.72;;;7.50;99.90;;;;;;4973507;28;20223;-75
2023/03/07 07:29:10;;;;;;;5.43;4.73;;;7.50;99.90;;;;;;4971379;28;20211;-75
2023/03/07 07:31:37;;;;;;;7.30;4.55;;;7.60;99.90;;;;;;4971920;28;20722;-75
2023/03/07 07:34:03;;;;;;;8.18;4.05;;;7.60;99.90;;;;;;4955198;28;20183;-75
2023/03/07 07:36:31;;;;;;;4.68;3.75;;;7.60;99.90;;;;;;4955783;28;20330;-75
2023/03/07 07:38:57;;;;;;;6.72;3.70;;;7.70;99.90;;;;;;4929833;29;20193;-75
2023/03/07 07:41:23;;;;;;;6.30;4.80;;;7.70;99.90;;;;;;4920767;29;20665;-75
2023/03/07 07:43:52;;;;;;;5.45;4.68;;;7.80;99.90;;;;;;4936456;29;20929;-75
2023/03/07 07:46:27;;;;;;;6.10;4.65;;;7.80;99.90;;;;;;4936066;29;20188;-75
2023/03/07 07:48:54;;;;;;;7.05;4.93;;;7.80;99.90;;;;;;4936394;29;20563;-75
2023/03/07 07:51:20;;;;;;;5.43;4.03;;;7.80;99.90;;;;;;4935539;29;20259;-79
2023/03/07 07:53:46;;;;;;;7.80;4.65;;;7.90;99.90;;;;;;4951976;29;20191;-79
2023/03/07 07:56:12;;;;;;;6.90;5.43;;;7.90;99.90;;;;;;4953091;29;20172;-79
2023/03/07 07:58:38;;;;;;;5.82;5.15;;;7.90;99.90;;;;;;4920110;29;21184;-79
2023/03/07 08:01:15;;;;;;;5.30;3.67;;;7.90;99.90;;;;;;4939793;28;20203;-79
2023/03/07 08:03:40;;;;;;;5.57;3.83;;;7.90;99.90;;;;;;4970311;28;20258;-79
2023/03/07 08:06:06;;;;;;;5.03;4.50;;;7.90;99.90;;;;;;4955591;28;20615;-80
2023/03/07 08:08:32;;;;;;;4.27;3.80;;;7.90;99.90;;;;;;4972390;28;20200;-79
2023/03/07 08:10:58;;;;;;;5.77;4.10;;;7.90;99.90;;;;;;4972744;28;20175;-79
2023/03/07 08:13:23;;;;;;;4.70;4.13;;;7.90;99.90;;;;;;4954152;28;20171;-79
2023/03/07 08:15:49;;;;;;;5.60;4.00;;;7.90;99.90;;;;;;4955285;28;20621;-79
2023/03/07 08:18:15;;;;;;;5.53;3.60;;;7.80;99.90;;;;;;4952701;28;20194;-79
2023/03/07 08:20:40;;;;;;;3.70;3.27;;;7.80;99.90;;;;;;4972083;28;20203;-79
2023/03/07 08:23:06;;;;;;;5.70;3.63;;;7.80;99.90;;;;;;4971741;28;20267;-79
2023/03/07 08:25:32;;;;;;;3.55;2.55;;;7.90;99.90;;;;;;4971194;28;20183;-80
2023/03/07 08:28:01;;;;;;;5.10;3.95;;;7.90;99.90;;;;;;4972595;28;20624;-78
2023/03/07 08:30:29;;;;;;;4.40;3.70;;;7.90;99.90;;;;;;4970712;28;20227;-79
2023/03/07 08:32:55;;;;;;;4.70;3.40;;;7.90;99.90;;;;;;4972061;28;20231;-80
2023/03/07 08:35:22;;;;;;;4.20;3.53;;;8.00;99.90;;;;;;4954559;28;20187;-80
2023/03/07 08:37:53;;;;;;;4.10;3.33;;;8.00;99.90;;;;;;4972355;28;20258;-80
2023/03/07 08:40:19;;;;;;;4.20;2.80;;;8.00;99.90;;;;;;4970690;28;20314;-79
2023/03/07 08:42:45;;;;;;;3.27;2.33;;;8.10;99.90;;;;;;4974611;28;20279;-80
2023/03/07 08:45:11;;;;;;;4.10;2.60;;;8.10;99.90;;;;;;4970910;28;20176;-80
2023/03/07 08:47:37;;;;;;;3.33;2.80;;;8.10;99.90;;;;;;4970981;28;20184;-80
2023/03/07 08:50:03;;;;;;;3.47;2.60;;;8.10;99.90;;;;;;4972001;28;20701;-80
2023/03/07 08:52:29;;;;;;;2.70;2.20;;;8.20;99.90;;;;;;4973172;28;20190;-80
2023/03/07 08:54:54;;;;;;;4.40;2.80;;;8.20;99.90;;;;;;4955043;28;20172;-80
2023/03/07 08:57:20;;;;;;;3.50;2.40;;;8.30;99.90;;;;;;4971268;28;20172;-79
2023/03/07 08:59:46;;;;;;;3.60;2.70;;;8.30;99.90;;;;;;4970404;28;20195;-80
2023/03/07 09:02:12;;;;;;;4.00;3.00;;;8.30;99.90;;;;;;4970874;28;20180;-79
2023/03/07 09:04:38;;;;;;;5.80;3.50;;;8.40;99.90;;;;;;4972644;28;20270;-79
2023/03/07 09:07:04;;;;;;;6.43;2.72;;;8.40;99.90;;;;;;4971970;28;20175;-79
2023/03/07 09:09:30;;;;;;;4.50;2.80;;;8.50;99.90;;;;;;4954264;28;20556;-79
2023/03/07 09:11:56;;;;;;;4.18;2.72;;;8.60;99.90;;;;;;4970074;28;20716;-79
2023/03/07 09:14:22;;;;;;;4.88;3.30;;;8.60;99.90;;;;;;4971202;28;20172;-79
2023/03/07 09:16:48;;;;;;;4.88;3.35;;;8.70;99.90;;;;;;4971785;28;20184;-78
2023/03/07 09:19:14;;;;;;;3.28;2.75;;;8.70;99.90;;;;;;4953721;28;20584;-78
2023/03/07 09:21:40;;;;;;;5.70;3.10;;;8.70;99.90;;;;;;4971220;28;20211;-79
2023/03/07 09:24:06;;;;;;;6.77;3.47;;;8.80;99.90;;;;;;4969989;28;20175;-79
2023/03/07 09:26:32;;;;;;;4.20;3.60;;;8.80;99.90;;;;;;4954438;28;20538;-78
2023/03/07 09:28:58;;;;;;;5.00;3.57;;;8.80;99.90;;;;;;4972526;28;20286;-78
2023/03/07 09:31:24;;;;;;;5.40;3.60;;;8.80;99.90;;;;;;4969219;28;20584;-78
2023/03/07 09:33:51;;;;;;;4.35;3.70;;;8.90;99.90;;;;;;4971301;28;20625;-78
2023/03/07 09:36:18;;;;;;;5.63;3.65;;;8.90;99.90;;;;;;4971325;28;20246;-79
2023/03/07 09:38:46;;;;;;;5.43;3.22;;;8.90;99.90;;;;;;4954546;28;20211;-79
2023/03/07 09:41:30;;;;;;;5.07;4.57;;;9.00;99.90;;;;;;4970046;28;20254;-79
2023/03/07 09:44:14;;;;;;;5.65;4.20;;;9.00;99.90;;;;;;4972323;28;20810;-79
2023/03/07 09:47:41;;;;;;;4.40;3.28;;;9.00;99.90;;;;;;4955013;28;20186;-79
2023/03/07 09:50:22;;;;;;;4.78;3.42;;;9.10;99.90;;;;;;4970732;28;20226;-79
2023/03/07 09:52:51;;;;;;;4.78;3.20;;;9.30;99.90;;;;;;4969276;28;20176;-78
2023/03/07 09:55:19;;;;;;;4.53;3.50;;;9.40;99.90;;;;;;4981738;28;20190;-78
2023/03/07 09:58:13;;;;;;;6.65;3.85;;;9.40;99.90;;;;;;4953612;28;20171;-78
2023/03/07 10:00:41;;;;;;;5.85;4.05;;;9.50;99.90;;;;;;4954010;28;20662;-79
2023/03/07 10:03:26;;;;;;;8.52;5.45;;;9.60;99.90;;;;;;4962399;28;20188;-79
2023/03/07 10:05:56;;;;;;;5.82;4.03;;;9.60;99.90;;;;;;4964010;28;20590;-79
2023/03/07 10:08:28;;;;;;;6.65;4.78;;;9.60;99.90;;;;;;4970905;28;20176;-80
2023/03/07 10:11:12;;;;;;;4.50;3.42;;;9.60;99.90;;;;;;4971557;28;20263;-79
2023/03/07 10:14:01;;;;;;;4.65;3.70;;;9.70;99.90;;;;;;4953803;28;20278;-79
2023/03/07 10:16:31;;;;;;;7.25;4.28;;;9.60;99.90;;;;;;4965406;28;20164;-79
2023/03/07 10:19:00;;;;;;;5.43;3.97;;;9.60;99.90;;;;;;4988446;28;20208;-80
2023/03/07 10:21:38;;;;;;;4.93;4.13;;;9.60;99.90;;;;;;4964536;28;20219;-80
2023/03/07 10:24:04;;;;;;;4.88;3.85;;;9.60;99.90;;;;;;4969018;28;20172;-78
2023/03/07 10:26:40;;;;;;;4.37;2.83;;;9.60;99.90;;;;;;4952696;28;20584;-79
2023/03/07 10:29:35;;;;;;;4.40;3.53;;;9.50;99.90;;;;;;4974797;28;20999;-79
2023/03/07 10:32:30;;;;;;;4.88;3.28;;;9.50;99.90;;;;;;4937642;28;20191;-79
2023/03/07 10:35:12;;;;;;;4.20;2.92;;;9.40;99.90;;;;;;4957215;28;20393;-80
2023/03/07 10:37:50;;;;;;;3.25;2.45;;;9.40;99.90;;;;;;4974219;28;20543;-79
2023/03/07 10:40:25;;;;;;;4.38;3.00;;;9.30;99.90;;;;;;4974302;28;20218;-79
2023/03/07 10:42:53;;;;;;;2.80;2.35;;;9.20;99.90;;;;;;4973495;28;20171;-79
2023/03/07 10:45:18;;;;;;;3.97;2.40;;;9.10;99.90;;;;;;4957347;28;20656;-79
2023/03/07 10:47:44;;;;;;;3.13;2.30;;;9.10;99.90;;;;;;4956425;28;20302;-80
2023/03/07 10:50:19;;;;;;;4.60;2.20;;;9.10;99.90;;;;;;4956722;28;20210;-80
2023/03/07 10:52:56;;;;;;;4.38;2.95;;;9.10;99.90;;;;;;4973489;28;20254;-79
2023/03/07 10:55:43;;;;;;;3.47;2.40;;;9.10;99.90;;;;;;4956981;28;20194;-79
2023/03/07 10:58:23;;;;;;;3.67;2.70;;;9.00;99.90;;;;;;4950692;28;20686;-78
2023/03/07 11:01:07;;;;;;;5.40;3.50;;;9.00;99.90;;;;;;4966131;28;20203;-79
2023/03/07 11:03:50;;;;;;;4.22;3.10;;;9.00;99.90;;;;;;4957414;28;20202;-79
2023/03/07 11:06:37;;;;;;;6.13;4.22;;;8.90;99.90;;;;;;4957756;28;20180;-79
2023/03/07 11:09:29;;;;;;;4.18;3.63;;;8.90;99.90;;;;;;4972704;28;20203;-79
2023/03/07 11:11:58;;;;;;;3.58;2.70;;;8.90;99.90;;;;;;4964802;28;20228;-79
2023/03/07 11:14:27;;;;;;;4.63;4.10;;;8.90;99.90;;;;;;4974159;28;20186;-79
2023/03/07 11:17:01;;;;;;;4.43;3.33;;;8.90;99.90;;;;;;4972391;28;20186;-79
2023/03/07 11:19:33;;;;;;;4.10;2.88;;;8.90;99.90;;;;;;4972567;28;20233;-79
2023/03/07 11:22:02;;;;;;;4.60;3.50;;;9.00;99.90;;;;;;4973077;28;20294;-80
2023/03/07 11:24:38;;;;;;;5.30;3.15;;;9.00;99.90;;;;;;4940379;28;20196;-79
2023/03/07 11:27:05;;;;;;;4.18;3.78;;;9.00;99.90;;;;;;4971385;28;20179;-80
2023/03/07 11:29:34;;;;;;;4.78;3.78;;;9.00;99.90;;;;;;4973657;28;20279;-79
2023/03/07 11:32:14;;;;;;;4.65;3.20;;;9.00;99.90;;;;;;4968612;28;20583;-79
2023/03/07 11:34:51;;;;;;;6.20;4.20;;;9.00;99.90;;;;;;4973361;28;20183;-78
2023/03/07 11:37:27;;;;;;;4.13;3.30;;;9.10;99.90;;;;;;4955704;28;20270;-78
2023/03/07 11:40:19;;;;;;;5.00;4.10;;;9.10;99.90;;;;;;4936585;29;20286;-78
2023/03/07 11:43:03;;;;;;;5.30;3.90;;;9.10;99.90;;;;;;4937138;29;20674;-78
2023/03/07 11:45:37;;;;;;;5.80;5.15;;;9.10;99.90;;;;;;4938808;28;20184;-79
2023/03/07 11:48:42;;;;;;;5.30;4.10;;;9.10;99.90;;;;;;4957350;28;20313;-78
2023/03/07 11:51:38;;;;;;;6.18;4.72;;;9.00;99.90;;;;;;4973197;28;20220;-79
2023/03/07 11:54:27;;;;;;;6.65;4.72;;;9.00;99.90;;;;;;4938885;28;20179;-80
2023/03/07 11:56:58;;;;;;;6.03;4.85;;;8.90;99.90;;;;;;4971371;28;20283;-80
2023/03/07 11:59:47;;;;;;;6.70;4.75;;;8.90;99.90;;;;;;4972630;28;20201;-80
2023/03/07 12:02:43;;;;;;;5.05;4.45;;;8.90;99.90;;;;;;4972771;28;20218;-80
2023/03/07 12:05:21;;;;;;;9.15;6.80;;;8.80;99.90;;;;;;4939765;28;20299;-79
2023/03/07 12:08:07;;;;;;;4.93;4.35;;;8.80;99.90;;;;;;4973028;28;20210;-79
2023/03/07 12:10:55;;;;;;;6.63;4.55;;;8.70;99.90;;;;;;4971227;28;20199;-80
2023/03/07 12:13:30;;;;;;;4.03;3.05;;;8.60;99.90;;;;;;4972307;28;20711;-80
2023/03/07 12:16:14;;;;;;;5.85;3.90;;;8.50;99.90;;;;;;4972818;28;20222;-80
2023/03/07 12:18:57;;;;;;;5.55;3.50;;;8.40;99.90;;;;;;4973065;28;20195;-80
2023/03/07 12:22:01;;;;;;;2.90;2.50;;;8.30;99.90;;;;;;4970647;28;20195;-81
2023/03/07 12:24:51;;;;;;;3.50;3.03;;;8.10;99.90;;;;;;4969031;28;20315;-80
2023/03/07 12:28:07;;;;;;;3.03;2.72;;;8.00;99.90;;;;;;4971045;28;20183;-80
2023/03/07 12:30:54;;;;;;;3.75;2.90;;;7.80;99.90;;;;;;4878301;29;20194;-80
2023/03/07 12:33:39;;;;;;;2.58;2.20;;;7.70;99.90;;;;;;4877143;29;20185;-79
2023/03/07 12:36:11;;;;;;;5.50;3.30;;;7.50;99.90;;;;;;4958023;28;20211;-79
2023/03/07 12:39:06;;;;;;;3.85;2.90;;;7.40;99.90;;;;;;4972342;28;20564;-80
2023/03/07 12:41:46;;;;;;;3.50;3.20;;;7.30;99.90;;;;;;4927371;28;20219;-80
2023/03/07 12:44:43;;;;;;;2.75;2.20;;;7.20;99.90;;;;;;4971730;28;20176;-80
2023/03/07 12:47:32;;;;;;;2.50;1.90;;;7.10;99.90;;;;;;4936519;29;20243;-80
2023/03/07 12:50:13;;;;;;;2.50;1.65;;;7.00;99.90;;;;;;4952980;29;20203;-80
2023/03/07 12:53:04;;;;;;;2.00;1.35;;;6.90;99.90;;;;;;4951851;29;20180;-80
2023/03/07 12:56:01;;;;;;;1.80;1.40;;;6.80;99.90;;;;;;4936426;29;20172;-80
2023/03/07 12:58:36;;;;;;;2.13;1.58;;;6.70;99.90;;;;;;4954902;29;20287;-80
2023/03/07 13:01:18;;;;;;;1.58;1.00;;;6.60;99.90;;;;;;4952902;29;20231;-80
2023/03/07 13:04:02;;;;;;;2.00;1.20;;;6.60;99.90;;;;;;4953220;29;20177;-80
2023/03/07 13:06:31;;;;;;;2.88;1.73;;;6.60;99.90;;;;;;4953008;29;20172;-80
2023/03/07 13:08:59;;;;;;;2.10;1.30;;;6.50;99.90;;;;;;4953432;29;20600;-80
2023/03/07 13:11:28;;;;;;;2.88;1.27;;;6.50;99.90;;;;;;4952667;29;20533;-80
2023/03/07 13:13:59;;;;;;;1.63;0.90;;;6.40;99.90;;;;;;4935764;29;20184;-80
2023/03/07 13:16:45;;;;;;;3.30;1.00;;;6.40;99.90;;;;;;4953471;29;20177;-80
2023/03/07 13:19:29;;;;;;;1.90;1.30;;;6.40;99.90;;;;;;4920386;29;20196;-80